Alice International Airport
KALI : now visible

Airfield :











YOU CAN JOIN US ON...

 
LOGIN :

Register | Disclaimer

   EN    FR    IT 

 









Legend :    VFR   Marginal VFR   IFR   Intensive IFR   Very Intensive IFR
Visi :
Ceiling :
>= 8 km
>= 3000ft
5 to 8 km
1000 to 3000 ft
1500m to 5 km
500 to 1000 ft
800 to 1500m
200 to 500 ft
< 800m
< 200 ft
Symbols :   Thunderstorms  Fog  Heavy snow  Heavy precipitations  Wind > 20 kt






- Airport Elevation : 178 ft


KALI - Alice International

CURRENT METAR :
  • 251753Z AUTO 15011G19KT 10SM SCT027 BKN035 OVC043 29/22 A2988 RMK AO2 SLP117 T02890222 10294 20194 58014 $

EXPIRED METARs :
  • 251701Z AUTO 15010G17KT 10SM FEW024 SCT029 OVC040 29/22 A2991 RMK AO2 T02890222 $
  • 251653Z AUTO 14010G17KT 10SM SCT024 BKN029 OVC040 28/22 A2991 RMK AO2 SLP125 T02830217 $
  • 251603Z AUTO 14012KT 10SM FEW021 BKN027 OVC039 27/21 A2992 RMK AO2 T02720211 $
  • 251553Z AUTO 14013KT 10SM FEW020 SCT027 OVC039 27/21 A2992 RMK AO2 SLP130 T02670211 $

TAF KALI
Valid from the 25 at 18:00 until the 26 at 18:00 UTC


251723Z 2518/2618 15012G18KT P6SM SCT025 OVC040
TEMPO 2518/2520 BKN025
FM252000 15012KT P6SM SCT030 BKN050
FM260300 15010G18KT P6SM OVC015
FM261500 16014G22KT P6SM BKN025
KZHU FIR / North America



MET'MAP, your aeronautical weather chart ! - Copyright ORBIFLY December 2007 - Disclaimer

ORBIFLY MET'MAP TEAM :

Programming & Development : Alexandra Zaïnal
Concept & original design : Baudouin d'Aumeries
Assistance for programming : Marc-Olivier Méhu
Technical & hardware support : Manuel Goepfert

Contact : metmap@orbifly.com




SOURCES & CREDITS :

   NOAA       Earth
Advisory